sensor_id;sensor_type;location;lat;lon;timestamp;pressure;altitude;pressure_sealevel;temperature;humidity
11017;BME280;54687;50.800;6.772;2023-05-20T00:00:44;59533.66;;;-144.06;22.05
11017;BME280;54687;50.800;6.772;2023-05-20T00:03:12;59550.44;;;-144.06;21.98
11017;BME280;54687;50.800;6.772;2023-05-20T00:05:39;59571.38;;;-144.06;21.86
11017;BME280;54687;50.800;6.772;2023-05-20T00:08:05;59533.66;;;-144.06;21.96
11017;BME280;54687;50.800;6.772;2023-05-20T00:10:33;59560.91;;;-144.06;22.02
11017;BME280;54687;50.800;6.772;2023-05-20T00:13:01;59579.75;;;-144.06;22.11
11017;BME280;54687;50.800;6.772;2023-05-20T00:15:28;59565.09;;;-144.06;21.94
11017;BME280;54687;50.800;6.772;2023-05-20T00:17:56;59588.16;;;-144.06;21.93
11017;BME280;54687;50.800;6.772;2023-05-20T00:20:23;59560.91;;;-144.06;21.96
11017;BME280;54687;50.800;6.772;2023-05-20T00:22:52;59567.19;;;-144.06;22.05
11017;BME280;54687;50.800;6.772;2023-05-20T00:25:20;59592.34;;;-144.06;21.93
11017;BME280;54687;50.800;6.772;2023-05-20T00:27:48;59581.84;;;-144.06;22.10
11017;BME280;54687;50.800;6.772;2023-05-20T00:30:17;59537.84;;;-144.06;22.20
11017;BME280;54687;50.800;6.772;2023-05-20T00:32:43;59550.44;;;-144.06;22.15
11017;BME280;54687;50.800;6.772;2023-05-20T00:35:10;59529.47;;;-144.06;22.21
11017;BME280;54687;50.800;6.772;2023-05-20T00:37:37;59567.19;;;-144.06;22.16
11017;BME280;54687;50.800;6.772;2023-05-20T00:40:04;59529.47;;;-144.06;22.23
11017;BME280;54687;50.800;6.772;2023-05-20T00:42:31;59579.75;;;-144.06;22.28
11017;BME280;54687;50.800;6.772;2023-05-20T00:44:59;59550.44;;;-144.06;22.20
11017;BME280;54687;50.800;6.772;2023-05-20T00:47:29;59531.56;;;-144.06;22.24
11017;BME280;54687;50.800;6.772;2023-05-20T00:49:57;59563.00;;;-144.06;22.31
11017;BME280;54687;50.800;6.772;2023-05-20T00:52:24;59571.38;;;-144.06;22.35
11017;BME280;54687;50.800;6.772;2023-05-20T00:54:52;59600.72;;;-144.06;22.19
11017;BME280;54687;50.800;6.772;2023-05-20T00:57:19;59600.72;;;-144.06;22.23
11017;BME280;54687;50.800;6.772;2023-05-20T00:59:46;59596.53;;;-144.06;22.23
11017;BME280;54687;50.800;6.772;2023-05-20T01:02:13;59579.75;;;-144.06;22.37
11017;BME280;54687;50.800;6.772;2023-05-20T01:04:41;59542.03;;;-144.06;22.30
11017;BME280;54687;50.800;6.772;2023-05-20T01:07:12;59581.84;;;-144.06;22.42
11017;BME280;54687;50.800;6.772;2023-05-20T01:09:39;59590.25;;;-144.06;22.35
11017;BME280;54687;50.800;6.772;2023-05-20T01:12:12;59575.56;;;-144.06;22.46
11017;BME280;54687;50.800;6.772;2023-05-20T01:14:47;59611.19;;;-144.06;22.35
11017;BME280;54687;50.800;6.772;2023-05-20T01:17:15;59621.66;;;-144.06;22.40
11017;BME280;54687;50.800;6.772;2023-05-20T01:19:47;59598.63;;;-144.06;22.59
11017;BME280;54687;50.800;6.772;2023-05-20T01:22:14;59600.72;;;-144.06;22.56
11017;BME280;54687;50.800;6.772;2023-05-20T01:24:44;59657.28;;;-144.06;22.54
11017;BME280;54687;50.800;6.772;2023-05-20T01:27:12;59634.25;;;-144.06;22.62
11017;BME280;54687;50.800;6.772;2023-05-20T01:29:40;59613.28;;;-144.06;22.67
11017;BME280;54687;50.800;6.772;2023-05-20T01:32:10;59642.63;;;-144.06;22.55
11017;BME280;54687;50.800;6.772;2023-05-20T01:34:37;59621.66;;;-144.06;22.67
11017;BME280;54687;50.800;6.772;2023-05-20T01:37:06;59617.47;;;-144.06;22.72
11017;BME280;54687;50.800;6.772;2023-05-20T01:39:35;59642.63;;;-144.06;22.62
11017;BME280;54687;50.800;6.772;2023-05-20T01:42:04;59642.63;;;-144.06;22.67
11017;BME280;54687;50.800;6.772;2023-05-20T01:44:31;59619.56;;;-144.06;22.66
11017;BME280;54687;50.800;6.772;2023-05-20T01:46:58;59621.66;;;-144.06;22.63
11017;BME280;54687;50.800;6.772;2023-05-20T01:49:25;59657.28;;;-144.06;22.59
11017;BME280;54687;50.800;6.772;2023-05-20T01:51:52;59640.53;;;-144.06;22.78
11017;BME280;54687;50.800;6.772;2023-05-20T01:54:19;59611.19;;;-144.06;22.79
11017;BME280;54687;50.800;6.772;2023-05-20T01:56:45;59632.16;;;-144.06;22.58
11017;BME280;54687;50.800;6.772;2023-05-20T01:59:13;59667.75;;;-144.06;22.93
11017;BME280;54687;50.800;6.772;2023-05-20T02:01:40;59648.91;;;-144.06;22.69
11017;BME280;54687;50.800;6.772;2023-05-20T02:04:06;59676.16;;;-144.06;22.69
11017;BME280;54687;50.800;6.772;2023-05-20T02:06:33;59659.38;;;-144.06;22.77
11017;BME280;54687;50.800;6.772;2023-05-20T02:09:00;59638.44;;;-144.06;22.67
11017;BME280;54687;50.800;6.772;2023-05-20T02:11:26;59625.84;;;-144.06;22.38
11017;BME280;54687;50.800;6.772;2023-05-20T02:13:53;59617.47;;;-144.06;22.86
11017;BME280;54687;50.800;6.772;2023-05-20T02:16:21;59627.94;;;-144.06;22.51
11017;BME280;54687;50.800;6.772;2023-05-20T02:18:47;59613.28;;;-144.06;22.76
11017;BME280;54687;50.800;6.772;2023-05-20T02:21:15;59646.81;;;-144.06;22.62
11017;BME280;54687;50.800;6.772;2023-05-20T02:23:42;59625.84;;;-144.06;22.59
11017;BME280;54687;50.800;6.772;2023-05-20T02:26:08;59609.09;;;-144.06;22.45
11017;BME280;54687;50.800;6.772;2023-05-20T02:28:35;59646.81;;;-144.06;22.44
11017;BME280;54687;50.800;6.772;2023-05-20T02:31:04;59646.81;;;-144.06;22.69
11017;BME280;54687;50.800;6.772;2023-05-20T02:33:32;59607.00;;;-144.06;22.68
11017;BME280;54687;50.800;6.772;2023-05-20T02:35:59;59634.25;;;-144.06;22.88
11017;BME280;54687;50.800;6.772;2023-05-20T02:38:26;59621.66;;;-144.06;22.67
11017;BME280;54687;50.800;6.772;2023-05-20T02:40:54;59625.84;;;-144.06;22.62
11017;BME280;54687;50.800;6.772;2023-05-20T02:43:23;59663.56;;;-144.06;22.59
11017;BME280;54687;50.800;6.772;2023-05-20T02:45:49;59663.56;;;-144.06;22.87
11017;BME280;54687;50.800;6.772;2023-05-20T02:48:16;59667.75;;;-144.06;22.95
11017;BME280;54687;50.800;6.772;2023-05-20T02:50:44;59682.44;;;-144.06;23.04
11017;BME280;54687;50.800;6.772;2023-05-20T02:53:11;59692.91;;;-144.06;23.02
11017;BME280;54687;50.800;6.772;2023-05-20T02:55:39;59701.28;;;-144.06;22.94
11017;BME280;54687;50.800;6.772;2023-05-20T02:58:05;59701.28;;;-144.06;23.07
11017;BME280;54687;50.800;6.772;2023-05-20T03:00:32;59655.19;;;-144.06;23.30
11017;BME280;54687;50.800;6.772;2023-05-20T03:03:04;59709.66;;;-144.06;23.32
11017;BME280;54687;50.800;6.772;2023-05-20T03:05:31;59695.00;;;-144.06;23.12
11017;BME280;54687;50.800;6.772;2023-05-20T03:08:05;59686.63;;;-144.06;23.37
11017;BME280;54687;50.800;6.772;2023-05-20T03:10:31;59684.53;;;-144.06;23.04
11017;BME280;54687;50.800;6.772;2023-05-20T03:12:58;59684.53;;;-144.06;23.59
11017;BME280;54687;50.800;6.772;2023-05-20T03:15:25;59684.53;;;-144.06;23.16
11017;BME280;54687;50.800;6.772;2023-05-20T03:17:51;59671.97;;;-144.06;23.47
11017;BME280;54687;50.800;6.772;2023-05-20T03:20:18;59713.88;;;-144.06;23.19
11017;BME280;54687;50.800;6.772;2023-05-20T03:22:45;59724.34;;;-144.06;23.03
11017;BME280;54687;50.800;6.772;2023-05-20T03:25:13;59743.19;;;-144.06;23.40
11017;BME280;54687;50.800;6.772;2023-05-20T03:27:39;59713.88;;;-144.06;23.32
11017;BME280;54687;50.800;6.772;2023-05-20T03:30:07;59695.00;;;-144.06;23.43
11017;BME280;54687;50.800;6.772;2023-05-20T03:32:34;59699.19;;;-144.06;23.37
11017;BME280;54687;50.800;6.772;2023-05-20T03:35:01;59718.06;;;-144.06;23.20
11017;BME280;54687;50.800;6.772;2023-05-20T03:37:27;59688.72;;;-144.06;23.29
11017;BME280;54687;50.800;6.772;2023-05-20T03:39:54;59688.72;;;-144.06;23.07
11017;BME280;54687;50.800;6.772;2023-05-20T03:42:25;59701.28;;;-144.06;22.98
11017;BME280;54687;50.800;6.772;2023-05-20T03:44:52;59690.81;;;-144.06;23.04
11017;BME280;54687;50.800;6.772;2023-05-20T03:47:18;59665.66;;;-144.06;23.15
11017;BME280;54687;50.800;6.772;2023-05-20T03:49:45;59659.38;;;-144.06;23.00
11017;BME280;54687;50.800;6.772;2023-05-20T03:52:11;59680.34;;;-144.06;22.99
11017;BME280;54687;50.800;6.772;2023-05-20T03:54:38;59671.97;;;-144.06;23.12
11017;BME280;54687;50.800;6.772;2023-05-20T03:57:04;59705.47;;;-144.06;23.23
11017;BME280;54687;50.800;6.772;2023-05-20T03:59:32;59663.56;;;-144.06;23.40
11017;BME280;54687;50.800;6.772;2023-05-20T04:01:59;59688.72;;;-144.06;23.11
11017;BME280;54687;50.800;6.772;2023-05-20T04:04:25;59711.78;;;-144.06;23.21
11017;BME280;54687;50.800;6.772;2023-05-20T04:06:52;59680.34;;;-144.06;23.33
11017;BME280;54687;50.800;6.772;2023-05-20T04:09:19;59711.78;;;-144.06;23.38
11017;BME280;54687;50.800;6.772;2023-05-20T04:11:45;59684.53;;;-144.06;23.35
11017;BME280;54687;50.800;6.772;2023-05-20T04:14:12;59684.53;;;-144.06;23.18
11017;BME280;54687;50.800;6.772;2023-05-20T04:16:40;59699.19;;;-144.06;23.36
11017;BME280;54687;50.800;6.772;2023-05-20T04:19:07;59665.66;;;-144.06;23.39
11017;BME280;54687;50.800;6.772;2023-05-20T04:21:34;59690.81;;;-144.06;23.48
11017;BME280;54687;50.800;6.772;2023-05-20T04:24:00;59688.72;;;-144.06;23.28
11017;BME280;54687;50.800;6.772;2023-05-20T04:26:27;59678.25;;;-144.06;23.52
11017;BME280;54687;50.800;6.772;2023-05-20T04:28:54;59684.53;;;-144.06;23.58
11017;BME280;54687;50.800;6.772;2023-05-20T04:31:23;59682.44;;;-144.06;23.60
11017;BME280;54687;50.800;6.772;2023-05-20T04:33:52;59701.28;;;-144.06;23.67
11017;BME280;54687;50.800;6.772;2023-05-20T04:36:19;59651.00;;;-144.06;23.35
11017;BME280;54687;50.800;6.772;2023-05-20T04:38:46;59657.28;;;-144.06;23.67
11017;BME280;54687;50.800;6.772;2023-05-20T04:41:13;59655.19;;;-144.06;23.43
11017;BME280;54687;50.800;6.772;2023-05-20T04:43:41;59655.19;;;-144.06;23.34
11017;BME280;54687;50.800;6.772;2023-05-20T04:46:08;59655.19;;;-144.06;23.45
11017;BME280;54687;50.800;6.772;2023-05-20T04:48:34;59699.19;;;-144.06;23.39
11017;BME280;54687;50.800;6.772;2023-05-20T04:51:03;59655.19;;;-144.06;23.28
11017;BME280;54687;50.800;6.772;2023-05-20T04:53:29;59642.63;;;-144.06;23.37
11017;BME280;54687;50.800;6.772;2023-05-20T04:55:56;59671.97;;;-144.06;23.13
11017;BME280;54687;50.800;6.772;2023-05-20T04:58:23;59655.19;;;-144.06;23.23
11017;BME280;54687;50.800;6.772;2023-05-20T05:00:50;59646.81;;;-144.06;23.06
11017;BME280;54687;50.800;6.772;2023-05-20T05:03:17;59655.19;;;-144.06;23.35
11017;BME280;54687;50.800;6.772;2023-05-20T05:05:44;59665.66;;;-144.06;23.28
11017;BME280;54687;50.800;6.772;2023-05-20T05:08:12;59655.19;;;-144.06;23.47
11017;BME280;54687;50.800;6.772;2023-05-20T05:10:38;59627.94;;;-144.06;23.38
11017;BME280;54687;50.800;6.772;2023-05-20T05:13:05;59634.25;;;-144.06;23.51
11017;BME280;54687;50.800;6.772;2023-05-20T05:15:32;59659.38;;;-144.06;23.40
11017;BME280;54687;50.800;6.772;2023-05-20T05:17:58;59653.09;;;-144.06;23.21
11017;BME280;54687;50.800;6.772;2023-05-20T05:20:25;59609.09;;;-144.06;23.20
11017;BME280;54687;50.800;6.772;2023-05-20T05:22:51;59613.28;;;-144.06;23.24
11017;BME280;54687;50.800;6.772;2023-05-20T05:25:19;59657.28;;;-144.06;23.13
11017;BME280;54687;50.800;6.772;2023-05-20T05:27:46;59590.25;;;-144.06;23.33
11017;BME280;54687;50.800;6.772;2023-05-20T05:30:13;59602.81;;;-144.06;23.17
11017;BME280;54687;50.800;6.772;2023-05-20T05:32:40;59609.09;;;-144.06;23.04
11017;BME280;54687;50.800;6.772;2023-05-20T05:35:07;59592.34;;;-144.06;22.88
11017;BME280;54687;50.800;6.772;2023-05-20T05:37:34;59575.56;;;-144.06;22.90
11017;BME280;54687;50.800;6.772;2023-05-20T05:40:00;59586.03;;;-144.06;22.75
11017;BME280;54687;50.800;6.772;2023-05-20T05:42:29;59563.00;;;-144.06;22.91
11017;BME280;54687;50.800;6.772;2023-05-20T05:44:55;59554.63;;;-144.06;22.82
11017;BME280;54687;50.800;6.772;2023-05-20T05:47:22;59586.03;;;-144.06;22.82
11017;BME280;54687;50.800;6.772;2023-05-20T05:49:54;59563.00;;;-144.06;22.72
11017;BME280;54687;50.800;6.772;2023-05-20T05:52:20;59569.28;;;-144.06;22.74
11017;BME280;54687;50.800;6.772;2023-05-20T05:54:47;59537.84;;;-144.06;22.92
11017;BME280;54687;50.800;6.772;2023-05-20T05:57:13;59537.84;;;-144.06;22.60
11017;BME280;54687;50.800;6.772;2023-05-20T05:59:42;59525.28;;;-144.06;22.60
11017;BME280;54687;50.800;6.772;2023-05-20T06:02:09;59537.84;;;-144.06;22.42
11017;BME280;54687;50.800;6.772;2023-05-20T06:04:35;59525.28;;;-144.06;22.45
11017;BME280;54687;50.800;6.772;2023-05-20T06:07:02;59487.56;;;-144.06;22.16
11017;BME280;54687;50.800;6.772;2023-05-20T06:09:29;59479.19;;;-144.06;22.24
11017;BME280;54687;50.800;6.772;2023-05-20T06:11:55;59470.81;;;-144.06;22.36
11017;BME280;54687;50.800;6.772;2023-05-20T06:14:22;59460.31;;;-144.06;22.41
11017;BME280;54687;50.800;6.772;2023-05-20T06:16:50;59431.00;;;-144.06;22.35
11017;BME280;54687;50.800;6.772;2023-05-20T06:19:16;59462.44;;;-144.06;22.26
11017;BME280;54687;50.800;6.772;2023-05-20T06:21:43;59447.75;;;-144.06;22.11
11017;BME280;54687;50.800;6.772;2023-05-20T06:24:09;59456.13;;;-144.06;22.04
11017;BME280;54687;50.800;6.772;2023-05-20T06:26:36;59412.13;;;-144.06;22.02
11017;BME280;54687;50.800;6.772;2023-05-20T06:29:03;59420.53;;;-144.06;22.20
11017;BME280;54687;50.800;6.772;2023-05-20T06:31:29;59395.38;;;-144.06;22.05
11017;BME280;54687;50.800;6.772;2023-05-20T06:33:57;59401.66;;;-144.06;22.07
11017;BME280;54687;50.800;6.772;2023-05-20T06:36:25;59412.13;;;-144.06;21.62
11017;BME280;54687;50.800;6.772;2023-05-20T06:38:52;59391.19;;;-144.06;22.02
11017;BME280;54687;50.800;6.772;2023-05-20T06:41:19;59372.34;;;-144.06;21.71
11017;BME280;54687;50.800;6.772;2023-05-20T06:43:46;59361.84;;;-144.06;21.79
11017;BME280;54687;50.800;6.772;2023-05-20T06:46:12;59345.09;;;-144.06;21.77
11017;BME280;54687;50.800;6.772;2023-05-20T06:48:39;59359.75;;;-144.06;21.51
11017;BME280;54687;50.800;6.772;2023-05-20T06:51:07;59355.56;;;-144.06;21.63
11017;BME280;54687;50.800;6.772;2023-05-20T06:53:34;59330.44;;;-144.06;21.37
11017;BME280;54687;50.800;6.772;2023-05-20T06:56:02;59322.03;;;-144.06;21.49
11017;BME280;54687;50.800;6.772;2023-05-20T06:58:28;59336.72;;;-144.06;21.39
11017;BME280;54687;50.800;6.772;2023-05-20T07:00:55;59301.09;;;-144.06;21.40
11017;BME280;54687;50.800;6.772;2023-05-20T07:03:22;59313.66;;;-144.06;21.37
11017;BME280;54687;50.800;6.772;2023-05-20T07:05:49;59240.34;;;-144.06;21.12
11017;BME280;54687;50.800;6.772;2023-05-20T07:08:17;59248.72;;;-144.06;21.16
11017;BME280;54687;50.800;6.772;2023-05-20T07:10:44;59240.34;;;-144.06;21.11
11017;BME280;54687;50.800;6.772;2023-05-20T07:13:11;59280.16;;;-144.06;21.06
11017;BME280;54687;50.800;6.772;2023-05-20T07:15:38;59286.44;;;-144.06;21.24
11017;BME280;54687;50.800;6.772;2023-05-20T07:18:04;59299.00;;;-144.06;21.32
11017;BME280;54687;50.800;6.772;2023-05-20T07:20:31;59282.25;;;-144.06;21.30
11017;BME280;54687;50.800;6.772;2023-05-20T07:22:58;59336.72;;;-144.06;21.53
11017;BME280;54687;50.800;6.772;2023-05-20T07:25:26;59303.19;;;-144.06;21.28
11017;BME280;54687;50.800;6.772;2023-05-20T07:27:53;59284.34;;;-144.06;21.28
11017;BME280;54687;50.800;6.772;2023-05-20T07:30:19;59269.66;;;-144.06;21.15
11017;BME280;54687;50.800;6.772;2023-05-20T07:32:46;59261.28;;;-144.06;21.12
11017;BME280;54687;50.800;6.772;2023-05-20T07:35:13;59282.25;;;-144.06;21.00
11017;BME280;54687;50.800;6.772;2023-05-20T07:37:39;59252.91;;;-144.06;20.97
11017;BME280;54687;50.800;6.772;2023-05-20T07:40:07;59248.72;;;-144.06;21.10
11017;BME280;54687;50.800;6.772;2023-05-20T07:42:35;59206.81;;;-144.06;20.90
11017;BME280;54687;50.800;6.772;2023-05-20T07:45:02;59219.38;;;-144.06;20.97
11017;BME280;54687;50.800;6.772;2023-05-20T07:47:30;59181.69;;;-144.06;20.93
11017;BME280;54687;50.800;6.772;2023-05-20T07:49:56;59192.16;;;-144.06;20.92
11017;BME280;54687;50.800;6.772;2023-05-20T07:52:23;59177.47;;;-144.06;20.85
11017;BME280;54687;50.800;6.772;2023-05-20T07:54:50;59156.53;;;-144.06;20.61
11017;BME280;54687;50.800;6.772;2023-05-20T07:57:17;59139.78;;;-144.06;20.87
11017;BME280;54687;50.800;6.772;2023-05-20T07:59:44;59123.00;;;-144.06;20.54
11017;BME280;54687;50.800;6.772;2023-05-20T08:02:11;59120.91;;;-144.06;20.31
11017;BME280;54687;50.800;6.772;2023-05-20T08:04:38;59093.69;;;-144.06;20.41
11017;BME280;54687;50.800;6.772;2023-05-20T08:07:04;59114.63;;;-144.06;20.24
11017;BME280;54687;50.800;6.772;2023-05-20T08:09:33;59114.63;;;-144.06;20.49
11017;BME280;54687;50.800;6.772;2023-05-20T08:11:59;59108.34;;;-144.06;20.35
11017;BME280;54687;50.800;6.772;2023-05-20T08:14:26;59135.59;;;-144.06;20.29
11017;BME280;54687;50.800;6.772;2023-05-20T08:16:54;59127.19;;;-144.06;20.66
11017;BME280;54687;50.800;6.772;2023-05-20T08:19:21;59175.38;;;-144.06;20.41
11017;BME280;54687;50.800;6.772;2023-05-20T08:21:49;59152.34;;;-144.06;20.74
11017;BME280;54687;50.800;6.772;2023-05-20T08:24:15;59160.72;;;-144.06;20.62
11017;BME280;54687;50.800;6.772;2023-05-20T08:26:42;59160.72;;;-144.06;20.46
11017;BME280;54687;50.800;6.772;2023-05-20T08:29:08;59179.59;;;-144.06;20.61
11017;BME280;54687;50.800;6.772;2023-05-20T08:31:35;59164.91;;;-144.06;20.71
11017;BME280;54687;50.800;6.772;2023-05-20T08:34:03;59177.47;;;-144.06;20.46
11017;BME280;54687;50.800;6.772;2023-05-20T08:36:30;59114.63;;;-144.06;20.71
11017;BME280;54687;50.800;6.772;2023-05-20T08:38:57;59108.34;;;-144.06;20.74
11017;BME280;54687;50.800;6.772;2023-05-20T08:41:23;59060.16;;;-144.06;20.45
11017;BME280;54687;50.800;6.772;2023-05-20T08:43:51;59104.16;;;-144.06;20.28
11017;BME280;54687;50.800;6.772;2023-05-20T08:46:18;59060.16;;;-144.06;20.31
11017;BME280;54687;50.800;6.772;2023-05-20T08:48:46;59064.34;;;-144.06;20.02
11017;BME280;54687;50.800;6.772;2023-05-20T08:51:17;59089.50;;;-144.06;20.21
11017;BME280;54687;50.800;6.772;2023-05-20T08:53:45;59070.63;;;-144.06;20.40
11017;BME280;54687;50.800;6.772;2023-05-20T08:56:12;59055.97;;;-144.06;20.24
11017;BME280;54687;50.800;6.772;2023-05-20T08:58:41;59045.50;;;-144.06;20.10
11017;BME280;54687;50.800;6.772;2023-05-20T09:01:08;59005.69;;;-144.06;20.00
11017;BME280;54687;50.800;6.772;2023-05-20T09:03:35;59039.22;;;-144.06;20.23
11017;BME280;54687;50.800;6.772;2023-05-20T09:06:03;59005.69;;;-144.06;19.98
11017;BME280;54687;50.800;6.772;2023-05-20T09:08:32;59011.97;;;-144.06;19.95
11017;BME280;54687;50.800;6.772;2023-05-20T09:10:59;58907.22;;;-144.06;19.68
11017;BME280;54687;50.800;6.772;2023-05-20T09:13:26;58886.28;;;-144.06;19.90
11017;BME280;54687;50.800;6.772;2023-05-20T09:15:53;58986.84;;;-144.06;19.87
11017;BME280;54687;50.800;6.772;2023-05-20T09:18:21;58967.97;;;-144.06;19.95
11017;BME280;54687;50.800;6.772;2023-05-20T09:20:49;58928.19;;;-144.06;19.90
11017;BME280;54687;50.800;6.772;2023-05-20T09:23:18;58961.69;;;-144.06;19.95
11017;BME280;54687;50.800;6.772;2023-05-20T09:25:48;58926.09;;;-144.06;19.75
11017;BME280;54687;50.800;6.772;2023-05-20T09:28:18;58913.53;;;-144.06;19.67
11017;BME280;54687;50.800;6.772;2023-05-20T09:30:47;58921.91;;;-144.06;19.63
11017;BME280;54687;50.800;6.772;2023-05-20T09:33:14;58900.94;;;-144.06;19.72
11017;BME280;54687;50.800;6.772;2023-05-20T09:35:41;58875.81;;;-144.06;19.48
11017;BME280;54687;50.800;6.772;2023-05-20T09:38:08;58877.91;;;-144.06;19.31
11017;BME280;54687;50.800;6.772;2023-05-20T09:40:35;58867.44;;;-144.06;19.59
11017;BME280;54687;50.800;6.772;2023-05-20T09:43:06;58821.34;;;-144.06;19.61
11017;BME280;54687;50.800;6.772;2023-05-20T09:45:33;58846.47;;;-144.06;19.42
11017;BME280;54687;50.800;6.772;2023-05-20T09:48:01;58796.22;;;-144.06;19.27
11017;BME280;54687;50.800;6.772;2023-05-20T09:50:28;58766.88;;;-144.06;19.36
11017;BME280;54687;50.800;6.772;2023-05-20T09:53:01;58775.25;;;-144.06;19.12
11017;BME280;54687;50.800;6.772;2023-05-20T09:55:29;58768.97;;;-144.06;19.23
11017;BME280;54687;50.800;6.772;2023-05-20T09:57:57;58720.78;;;-144.06;19.15
11017;BME280;54687;50.800;6.772;2023-05-20T10:00:28;58733.34;;;-144.06;19.11
11017;BME280;54687;50.800;6.772;2023-05-20T10:02:56;58783.63;;;-144.06;19.13
11017;BME280;54687;50.800;6.772;2023-05-20T10:05:26;58764.78;;;-144.06;19.13
11017;BME280;54687;50.800;6.772;2023-05-20T10:10:49;58695.66;;;-144.06;19.21
11017;BME280;54687;50.800;6.772;2023-05-20T10:13:44;58785.72;;;-144.06;19.23
11017;BME280;54687;50.800;6.772;2023-05-20T10:16:20;58741.75;;;-144.06;19.31
11017;BME280;54687;50.800;6.772;2023-05-20T10:18:57;58766.88;;;-144.06;19.04
11017;BME280;54687;50.800;6.772;2023-05-20T10:21:27;58739.66;;;-144.06;19.22
11017;BME280;54687;50.800;6.772;2023-05-20T10:23:53;58783.63;;;-144.06;19.24
11017;BME280;54687;50.800;6.772;2023-05-20T10:26:34;58802.50;;;-144.06;19.21
11017;BME280;54687;50.800;6.772;2023-05-20T10:29:01;58779.44;;;-144.06;19.39
11017;BME280;54687;50.800;6.772;2023-05-20T10:31:44;58838.09;;;-144.06;19.38
11017;BME280;54687;50.800;6.772;2023-05-20T10:34:14;58787.81;;;-144.06;19.34
11017;BME280;54687;50.800;6.772;2023-05-20T10:36:44;58748.03;;;-144.06;19.19
11017;BME280;54687;50.800;6.772;2023-05-20T10:39:14;58752.22;;;-144.06;19.26
11017;BME280;54687;50.800;6.772;2023-05-20T10:41:42;58846.47;;;-144.06;19.31
11017;BME280;54687;50.800;6.772;2023-05-20T10:44:08;58850.66;;;-144.06;19.40
11017;BME280;54687;50.800;6.772;2023-05-20T10:46:35;58888.38;;;-144.06;19.67
11017;BME280;54687;50.800;6.772;2023-05-20T10:49:03;58955.41;;;-144.06;19.66
11017;BME280;54687;50.800;6.772;2023-05-20T10:51:30;58951.22;;;-144.06;19.77
11017;BME280;54687;50.800;6.772;2023-05-20T10:53:57;58926.09;;;-144.06;19.79
11017;BME280;54687;50.800;6.772;2023-05-20T10:56:25;58896.75;;;-144.06;19.71
11017;BME280;54687;50.800;6.772;2023-05-20T10:58:53;58921.91;;;-144.06;19.70
11017;BME280;54687;50.800;6.772;2023-05-20T11:01:23;58900.94;;;-144.06;19.86
11017;BME280;54687;50.800;6.772;2023-05-20T11:03:50;58892.56;;;-144.06;19.95
11017;BME280;54687;50.800;6.772;2023-05-20T11:06:18;58867.44;;;-144.06;19.94
11017;BME280;54687;50.800;6.772;2023-05-20T11:08:45;58850.66;;;-144.06;19.73
11017;BME280;54687;50.800;6.772;2023-05-20T11:11:13;58825.53;;;-144.06;19.63
11017;BME280;54687;50.800;6.772;2023-05-20T11:13:40;58777.34;;;-144.06;19.36
11017;BME280;54687;50.800;6.772;2023-05-20T11:16:06;58783.63;;;-144.06;19.65
11017;BME280;54687;50.800;6.772;2023-05-20T11:18:34;58800.41;;;-144.06;19.56
11017;BME280;54687;50.800;6.772;2023-05-20T11:21:01;58779.44;;;-144.06;19.53
11017;BME280;54687;50.800;6.772;2023-05-20T11:23:29;58743.84;;;-144.06;19.24
11017;BME280;54687;50.800;6.772;2023-05-20T11:25:56;58737.56;;;-144.06;19.25
11017;BME280;54687;50.800;6.772;2023-05-20T11:28:23;58737.56;;;-144.06;19.24
11017;BME280;54687;50.800;6.772;2023-05-20T11:30:51;58806.69;;;-144.06;19.09
11017;BME280;54687;50.800;6.772;2023-05-20T11:33:19;58779.44;;;-144.06;19.41
11017;BME280;54687;50.800;6.772;2023-05-20T11:35:47;58741.75;;;-144.06;19.15
11017;BME280;54687;50.800;6.772;2023-05-20T11:38:14;58720.78;;;-144.06;19.21
11017;BME280;54687;50.800;6.772;2023-05-20T11:40:46;58678.91;;;-144.06;19.09
11017;BME280;54687;50.800;6.772;2023-05-20T11:43:13;58655.84;;;-144.06;19.04
11017;BME280;54687;50.800;6.772;2023-05-20T11:45:41;58674.72;;;-144.06;18.92
11017;BME280;54687;50.800;6.772;2023-05-20T11:48:08;58662.13;;;-144.06;18.97
11017;BME280;54687;50.800;6.772;2023-05-20T11:50:37;58660.03;;;-144.06;18.95
11017;BME280;54687;50.800;6.772;2023-05-20T11:53:06;58720.78;;;-144.06;18.92
11017;BME280;54687;50.800;6.772;2023-05-20T11:55:33;58716.59;;;-144.06;19.05
11017;BME280;54687;50.800;6.772;2023-05-20T11:58:02;58748.03;;;-144.06;19.04
11017;BME280;54687;50.800;6.772;2023-05-20T12:00:29;58764.78;;;-144.06;19.41
11017;BME280;54687;50.800;6.772;2023-05-20T12:02:55;58712.41;;;-144.06;19.30
11017;BME280;54687;50.800;6.772;2023-05-20T12:05:22;58754.31;;;-144.06;19.19
11017;BME280;54687;50.800;6.772;2023-05-20T12:07:48;58760.59;;;-144.06;19.41
11017;BME280;54687;50.800;6.772;2023-05-20T12:10:15;58762.69;;;-144.06;19.32
11017;BME280;54687;50.800;6.772;2023-05-20T12:12:42;58750.13;;;-144.06;19.26
11017;BME280;54687;50.800;6.772;2023-05-20T12:15:11;58733.34;;;-144.06;19.08
11017;BME280;54687;50.800;6.772;2023-05-20T12:17:46;58733.34;;;-144.06;18.96
11017;BME280;54687;50.800;6.772;2023-05-20T12:20:14;58754.31;;;-144.06;19.20
11017;BME280;54687;50.800;6.772;2023-05-20T12:22:41;58794.09;;;-144.06;19.43
11017;BME280;54687;50.800;6.772;2023-05-20T12:25:10;58840.19;;;-144.06;19.59
11017;BME280;54687;50.800;6.772;2023-05-20T12:27:37;58821.34;;;-144.06;19.70
11017;BME280;54687;50.800;6.772;2023-05-20T12:30:05;58804.59;;;-144.06;19.61
11017;BME280;54687;50.800;6.772;2023-05-20T12:32:34;58758.50;;;-144.06;19.29
11017;BME280;54687;50.800;6.772;2023-05-20T12:35:00;58752.22;;;-144.06;19.21
11017;BME280;54687;50.800;6.772;2023-05-20T12:37:27;58771.06;;;-144.06;19.38
11017;BME280;54687;50.800;6.772;2023-05-20T12:39:54;58789.91;;;-144.06;19.36
11017;BME280;54687;50.800;6.772;2023-05-20T12:42:21;58766.88;;;-144.06;19.60
11017;BME280;54687;50.800;6.772;2023-05-20T12:44:47;58775.25;;;-144.06;19.70